createdAt,value
2018-12-14T00:02:01.721Z,7.00
2018-12-14T00:04:28.946Z,8.10
2018-12-14T00:06:55.503Z,9.47
2018-12-14T00:09:22.102Z,8.77
2018-12-14T00:11:48.677Z,9.33
2018-12-14T00:14:15.272Z,8.67
2018-12-14T00:16:41.743Z,8.33
2018-12-14T00:19:08.338Z,8.20
2018-12-14T00:21:34.925Z,9.23
2018-12-14T00:24:01.531Z,8.90
2018-12-14T00:26:27.995Z,8.30
2018-12-14T00:28:54.493Z,7.90
2018-12-14T00:31:21.009Z,8.33
2018-12-14T00:33:47.456Z,9.10
2018-12-14T00:36:13.918Z,8.60
2018-12-14T00:38:40.584Z,8.30
2018-12-14T00:41:07.036Z,9.03
2018-12-14T00:43:33.499Z,8.90
2018-12-14T00:45:59.986Z,8.63
2018-12-14T00:48:26.453Z,8.63
2018-12-14T00:50:52.957Z,7.83
2018-12-14T00:53:19.420Z,8.67
2018-12-14T00:55:45.974Z,8.23
2018-12-14T00:58:12.442Z,8.20
2018-12-14T01:00:39.036Z,8.00
2018-12-14T01:03:05.602Z,8.67
2018-12-14T01:05:32.270Z,8.07
2018-12-14T01:07:58.734Z,8.00
2018-12-14T01:10:25.495Z,8.70
2018-12-14T01:12:51.893Z,7.20
2018-12-14T01:15:18.396Z,7.53
2018-12-14T01:17:44.847Z,7.73
2018-12-14T01:20:11.429Z,8.30
2018-12-14T01:22:37.902Z,8.33
2018-12-14T01:25:04.710Z,8.60
2018-12-14T01:27:31.286Z,8.43
2018-12-14T01:29:57.873Z,7.43
2018-12-14T01:32:24.451Z,8.40
2018-12-14T01:34:50.942Z,8.07
2018-12-14T01:37:17.412Z,8.37
2018-12-14T01:39:43.819Z,8.80
2018-12-14T01:42:10.293Z,8.33
2018-12-14T01:44:36.778Z,8.27
2018-12-14T01:47:03.419Z,8.60
2018-12-14T01:49:30.014Z,7.20
2018-12-14T01:51:56.603Z,7.77
2018-12-14T01:54:23.067Z,7.93
2018-12-14T01:56:49.651Z,8.13
2018-12-14T01:59:16.206Z,8.33
2018-12-14T02:01:43.837Z,7.40
2018-12-14T02:04:10.614Z,7.57
2018-12-14T02:06:37.246Z,8.00
2018-12-14T02:09:05.695Z,8.47
2018-12-14T02:11:32.276Z,7.80
2018-12-14T02:13:58.938Z,9.53
2018-12-14T02:16:25.524Z,8.73
2018-12-14T02:18:51.906Z,7.80
2018-12-14T02:21:18.514Z,7.83
2018-12-14T02:23:44.982Z,8.37
2018-12-14T02:26:11.686Z,8.37
2018-12-14T02:28:38.264Z,8.30
2018-12-14T02:31:05.163Z,9.13
2018-12-14T02:33:31.627Z,8.80
2018-12-14T02:35:58.233Z,8.30
2018-12-14T02:38:24.921Z,8.60
2018-12-14T02:40:51.416Z,8.80
2018-12-14T02:43:19.118Z,8.10
2018-12-14T02:45:45.606Z,8.23
2018-12-14T02:48:12.085Z,8.27
2018-12-14T02:50:38.682Z,8.50
2018-12-14T02:53:05.058Z,9.33
2018-12-14T02:55:31.573Z,7.97
2018-12-14T02:57:58.029Z,8.27
2018-12-14T03:00:24.541Z,8.63
2018-12-14T03:02:51.210Z,7.97
2018-12-14T03:05:17.712Z,7.97
2018-12-14T03:07:44.270Z,8.10
2018-12-14T03:10:10.978Z,7.70
2018-12-14T03:12:37.668Z,8.03
2018-12-14T03:15:04.582Z,8.40
2018-12-14T03:17:31.455Z,8.30
2018-12-14T03:19:58.176Z,8.03
2018-12-14T03:22:25.125Z,8.97
2018-12-14T03:24:51.737Z,8.00
2018-12-14T03:27:18.416Z,8.47
2018-12-14T03:29:44.875Z,7.70
2018-12-14T03:32:11.372Z,8.20
2018-12-14T03:34:37.952Z,8.20
2018-12-14T03:37:04.565Z,8.60
2018-12-14T03:39:31.023Z,8.97
2018-12-14T03:41:57.505Z,7.70
2018-12-14T03:44:23.965Z,8.60
2018-12-14T03:46:50.469Z,8.23
2018-12-14T03:49:16.955Z,8.73
2018-12-14T03:51:43.443Z,8.73
2018-12-14T03:54:10.900Z,8.90
2018-12-14T03:56:38.255Z,9.00
2018-12-14T03:59:05.759Z,8.30
2018-12-14T04:01:32.858Z,7.60
2018-12-14T04:03:59.425Z,8.47
2018-12-14T04:06:25.910Z,9.63
2018-12-14T04:08:52.466Z,8.43
2018-12-14T04:11:18.954Z,9.00
2018-12-14T04:13:45.539Z,8.40
2018-12-14T04:16:12.023Z,7.93
2018-12-14T04:18:38.491Z,8.53
2018-12-14T04:21:05.306Z,8.03
2018-12-14T04:23:31.857Z,7.90
2018-12-14T04:25:58.446Z,7.90
2018-12-14T04:28:24.902Z,8.67
2018-12-14T04:30:51.411Z,7.80
2018-12-14T04:33:18.090Z,8.10
2018-12-14T04:35:44.664Z,7.60
2018-12-14T04:38:11.126Z,8.50
2018-12-14T04:40:37.619Z,8.67
2018-12-14T04:43:04.198Z,7.50
2018-12-14T04:45:30.788Z,8.60
2018-12-14T04:47:57.353Z,8.03
2018-12-14T04:50:23.852Z,7.90
2018-12-14T04:52:50.539Z,8.70
2018-12-14T04:55:17.040Z,7.30
2018-12-14T04:57:43.610Z,7.57
2018-12-14T05:00:10.310Z,8.00
2018-12-14T05:02:36.921Z,9.30
2018-12-14T05:05:04.214Z,8.33
2018-12-14T05:07:30.626Z,8.60
2018-12-14T05:09:57.106Z,8.57
2018-12-14T05:12:23.593Z,8.27
2018-12-14T05:14:50.426Z,8.10
2018-12-14T05:17:17.358Z,9.20
2018-12-14T05:19:43.838Z,7.63
2018-12-14T05:22:10.329Z,8.53
2018-12-14T05:24:36.782Z,8.53
2018-12-14T05:27:03.510Z,8.90
2018-12-14T05:29:31.667Z,8.70
2018-12-14T05:32:00.723Z,9.00
2018-12-14T05:34:27.197Z,8.70
2018-12-14T05:36:53.784Z,8.60
2018-12-14T05:39:20.247Z,8.47
2018-12-14T05:41:46.848Z,8.50
2018-12-14T05:44:13.413Z,8.83
2018-12-14T05:46:39.914Z,8.63
2018-12-14T05:49:06.515Z,8.90
2018-12-14T05:51:33.098Z,8.87
2018-12-14T05:53:59.573Z,9.57
2018-12-14T05:56:26.932Z,8.40
2018-12-14T05:58:53.394Z,7.93
2018-12-14T06:01:22.402Z,8.07
2018-12-14T06:03:49.840Z,7.43
2018-12-14T06:06:16.995Z,8.43
2018-12-14T06:08:43.787Z,9.07
2018-12-14T06:11:10.377Z,8.57
2018-12-14T06:13:36.959Z,8.00
2018-12-14T06:16:03.558Z,8.80
2018-12-14T06:18:30.316Z,8.23
2018-12-14T06:20:56.848Z,7.80
2018-12-14T06:23:23.427Z,8.80
2018-12-14T06:25:50.134Z,9.23
2018-12-14T06:28:16.691Z,8.50
2018-12-14T06:30:43.178Z,8.77
2018-12-14T06:33:09.859Z,8.83
2018-12-14T06:35:36.445Z,9.80
2018-12-14T06:38:03.155Z,8.13
2018-12-14T06:40:29.617Z,8.43
2018-12-14T06:42:56.314Z,8.80
2018-12-14T06:45:22.895Z,7.50
2018-12-14T06:47:49.498Z,8.50
2018-12-14T06:50:16.150Z,8.57
2018-12-14T06:52:42.733Z,9.93
2018-12-14T06:55:09.195Z,8.93
2018-12-14T06:57:35.928Z,9.00
2018-12-14T07:00:05.075Z,9.50
2018-12-14T07:02:31.869Z,8.37
2018-12-14T07:04:58.431Z,8.13
2018-12-14T07:07:25.124Z,8.43
2018-12-14T07:09:51.695Z,9.10
2018-12-14T07:12:18.538Z,8.63
2018-12-14T07:14:45.240Z,8.97
2018-12-14T07:17:11.823Z,8.47
2018-12-14T07:19:38.421Z,9.50
2018-12-14T07:22:04.997Z,8.60
2018-12-14T07:24:31.790Z,8.90
2018-12-14T07:26:58.587Z,8.27
2018-12-14T07:29:25.703Z,8.33
2018-12-14T07:31:52.165Z,8.00
2018-12-14T07:34:18.875Z,8.90
2018-12-14T07:36:45.452Z,9.43
2018-12-14T07:39:12.170Z,9.03
2018-12-14T07:41:40.324Z,8.80
2018-12-14T07:44:07.433Z,9.40
2018-12-14T07:46:34.202Z,10.50
2018-12-14T07:49:01.495Z,8.97
2018-12-14T07:51:29.781Z,8.97
2018-12-14T07:53:56.357Z,9.90
2018-12-14T07:56:22.823Z,9.03
2018-12-14T07:58:49.725Z,9.43
2018-12-14T08:01:17.456Z,9.63
2018-12-14T08:03:44.072Z,8.83
2018-12-14T08:06:10.535Z,8.23
2018-12-14T08:08:40.233Z,9.67
2018-12-14T08:11:06.819Z,8.47
2018-12-14T08:13:34.927Z,8.70
2018-12-14T08:16:02.741Z,8.97
2018-12-14T08:18:29.434Z,8.67
2018-12-14T08:20:56.070Z,8.40
2018-12-14T08:23:22.774Z,8.77
2018-12-14T08:25:49.295Z,8.93
2018-12-14T08:28:15.887Z,9.43
2018-12-14T08:30:43.351Z,8.60
2018-12-14T08:33:09.989Z,8.80
2018-12-14T08:35:36.899Z,9.57
2018-12-14T08:38:03.459Z,8.43
2018-12-14T08:40:30.467Z,8.50
2018-12-14T08:42:57.087Z,9.10
2018-12-14T08:45:24.191Z,9.00
2018-12-14T08:47:51.235Z,9.50
2018-12-14T08:50:17.833Z,9.00
2018-12-14T08:52:45.278Z,8.90
2018-12-14T08:55:12.223Z,9.50
2018-12-14T08:57:39.503Z,8.93
2018-12-14T09:00:06.434Z,8.97
2018-12-14T09:02:32.999Z,8.03
2018-12-14T09:05:01.834Z,9.20
2018-12-14T09:07:28.809Z,9.57
2018-12-14T09:09:55.398Z,9.17
2018-12-14T09:12:22.858Z,9.33
2018-12-14T09:14:49.439Z,9.63
2018-12-14T09:17:16.015Z,8.40
2018-12-14T09:19:43.309Z,8.80
2018-12-14T09:22:09.990Z,8.70
2018-12-14T09:24:37.118Z,9.00
2018-12-14T09:27:03.797Z,8.47
2018-12-14T09:29:30.395Z,8.60
2018-12-14T09:31:56.977Z,9.10
2018-12-14T09:34:23.690Z,8.53
2018-12-14T09:36:50.258Z,8.33
2018-12-14T09:39:17.585Z,9.40
2018-12-14T09:41:45.043Z,9.17
2018-12-14T09:44:11.630Z,9.40
2018-12-14T09:46:38.315Z,8.90
2018-12-14T09:49:04.903Z,9.30
2018-12-14T09:51:31.478Z,8.80
2018-12-14T09:53:58.084Z,9.30
2018-12-14T09:56:24.661Z,10.03
2018-12-14T09:58:51.247Z,8.73
2018-12-14T10:01:17.825Z,8.60
2018-12-14T10:03:44.824Z,8.87
2018-12-14T10:06:15.671Z,8.43
2018-12-14T10:08:40.007Z,9.50
2018-12-14T10:11:06.602Z,9.10
2018-12-14T10:13:33.409Z,8.97
2018-12-14T10:16:00.315Z,8.97
2018-12-14T10:18:26.874Z,9.13
2018-12-14T10:20:53.478Z,9.20
2018-12-14T10:23:19.938Z,9.30
2018-12-14T10:25:46.577Z,9.10
2018-12-14T10:28:13.134Z,8.63
2018-12-14T10:30:39.628Z,9.50
2018-12-14T10:33:06.202Z,9.30
2018-12-14T10:35:32.839Z,9.43
2018-12-14T10:37:59.396Z,9.87
2018-12-14T10:40:26.003Z,9.50
2018-12-14T10:42:52.472Z,8.80
2018-12-14T10:45:20.203Z,9.40
2018-12-14T10:47:46.996Z,10.53
2018-12-14T10:50:13.585Z,9.27
2018-12-14T10:52:40.047Z,10.10
2018-12-14T10:55:06.860Z,10.40
2018-12-14T10:57:34.056Z,10.90
2018-12-14T11:00:00.806Z,10.60
2018-12-14T11:02:27.273Z,10.93
2018-12-14T11:04:53.758Z,11.03
2018-12-14T11:07:20.260Z,11.10
2018-12-14T11:09:47.086Z,12.47
2018-12-14T11:12:13.553Z,11.70
2018-12-14T11:14:40.125Z,12.20
2018-12-14T11:17:06.606Z,12.33
2018-12-14T11:19:33.204Z,12.80
2018-12-14T11:22:01.608Z,11.23
2018-12-14T11:24:28.484Z,12.73
2018-12-14T11:26:55.079Z,12.40
2018-12-14T11:29:22.333Z,12.20
2018-12-14T11:31:48.762Z,12.60
2018-12-14T11:34:15.215Z,12.10
2018-12-14T11:36:41.812Z,11.87
2018-12-14T11:39:08.387Z,12.77
2018-12-14T11:41:35.001Z,12.67
2018-12-14T11:44:01.470Z,13.00
2018-12-14T11:46:27.964Z,14.30
2018-12-14T11:48:54.734Z,11.93
2018-12-14T11:51:22.074Z,12.90
2018-12-14T11:53:48.651Z,13.30
2018-12-14T11:56:16.201Z,12.37
2018-12-14T11:58:42.895Z,13.03
2018-12-14T12:01:09.416Z,14.53
2018-12-14T12:03:36.057Z,14.20
2018-12-14T12:06:02.563Z,13.33
2018-12-14T12:08:29.122Z,13.70
2018-12-14T12:10:55.602Z,13.87
2018-12-14T12:13:22.160Z,14.50
2018-12-14T12:15:48.882Z,14.50
2018-12-14T12:18:15.343Z,14.50
2018-12-14T12:20:41.927Z,12.70
2018-12-14T12:23:08.386Z,15.47
2018-12-14T12:25:34.995Z,13.60
2018-12-14T12:28:01.461Z,15.13
2018-12-14T12:30:28.051Z,13.80
2018-12-14T12:32:54.538Z,15.03
2018-12-14T12:35:21.140Z,14.60
2018-12-14T12:37:47.633Z,14.63
2018-12-14T12:40:14.106Z,14.57
2018-12-14T12:42:40.606Z,15.20
2018-12-14T12:45:07.705Z,14.20
2018-12-14T12:47:34.635Z,15.07
2018-12-14T12:50:01.995Z,14.23
2018-12-14T12:52:28.615Z,13.60
2018-12-14T12:54:55.094Z,13.47
2018-12-14T12:57:21.699Z,15.40
2018-12-14T12:59:48.254Z,14.30
2018-12-14T13:02:14.874Z,14.43
2018-12-14T13:04:41.695Z,14.07
2018-12-14T13:07:08.251Z,13.53
2018-12-14T13:09:34.856Z,14.10
2018-12-14T13:12:01.422Z,14.13
2018-12-14T13:14:27.934Z,14.73
2018-12-14T13:16:54.431Z,13.73
2018-12-14T13:19:20.978Z,14.23
2018-12-14T13:21:47.437Z,14.23
2018-12-14T13:24:13.952Z,14.53
2018-12-14T13:26:40.467Z,14.10
2018-12-14T13:29:06.966Z,14.20
2018-12-14T13:31:33.452Z,14.17
2018-12-14T13:34:00.022Z,15.03
2018-12-14T13:36:26.778Z,14.57
2018-12-14T13:38:53.304Z,14.27
2018-12-14T13:41:19.842Z,15.40
2018-12-14T13:43:46.538Z,14.60
2018-12-14T13:46:13.161Z,14.97
2018-12-14T13:48:39.852Z,16.57
2018-12-14T13:51:06.367Z,16.40
2018-12-14T13:53:32.915Z,17.07
2018-12-14T13:55:59.469Z,17.10
2018-12-14T13:58:26.192Z,16.60
2018-12-14T14:00:52.657Z,19.77
2018-12-14T14:03:19.181Z,18.67
2018-12-14T14:05:45.743Z,20.10
2018-12-14T14:08:12.457Z,20.37
2018-12-14T14:10:39.241Z,20.30
2018-12-14T14:13:05.951Z,20.30
2018-12-14T14:15:32.574Z,20.47
2018-12-14T14:17:59.167Z,20.30
2018-12-14T14:20:28.231Z,20.10
2018-12-14T14:22:54.905Z,20.23
2018-12-14T14:25:21.504Z,20.77
2018-12-14T14:27:48.414Z,20.47
2018-12-14T14:30:14.987Z,22.00
2018-12-14T14:32:41.651Z,20.30
2018-12-14T14:35:08.189Z,19.07
2018-12-14T14:37:34.658Z,20.23
2018-12-14T14:40:04.185Z,20.30
2018-12-14T14:42:30.851Z,20.57
2018-12-14T14:44:59.882Z,19.70
2018-12-14T14:47:26.038Z,18.40
2018-12-14T14:49:52.599Z,19.10
2018-12-14T14:52:19.312Z,18.83
2018-12-14T14:54:45.979Z,18.70
2018-12-14T14:57:12.701Z,18.97
2018-12-14T14:59:39.293Z,18.77
2018-12-14T15:02:06.125Z,17.60
2018-12-14T15:04:32.806Z,16.57
2018-12-14T15:07:00.264Z,17.80
2018-12-14T15:09:28.593Z,17.60
2018-12-14T15:11:55.127Z,17.50
2018-12-14T15:14:21.712Z,15.77
2018-12-14T15:16:49.582Z,17.17
2018-12-14T15:19:17.205Z,17.00
2018-12-14T15:21:43.777Z,17.80
2018-12-14T15:24:11.312Z,17.00
2018-12-14T15:26:37.871Z,16.57
2018-12-14T15:29:04.716Z,15.87
2018-12-14T15:31:31.284Z,15.37
2018-12-14T15:33:57.913Z,16.10
2018-12-14T15:36:24.578Z,15.80
2018-12-14T15:38:51.186Z,14.53
2018-12-14T15:41:17.880Z,14.90
2018-12-14T15:43:44.390Z,13.63
2018-12-14T15:46:11.094Z,16.17
2018-12-14T15:48:39.021Z,15.10
2018-12-14T15:51:05.598Z,14.70
2018-12-14T15:53:32.320Z,13.53
2018-12-14T15:55:59.478Z,14.00
2018-12-14T15:58:26.190Z,14.13
2018-12-14T16:00:52.799Z,14.13
2018-12-14T16:03:19.435Z,13.03
2018-12-14T16:05:45.945Z,13.27
2018-12-14T16:08:12.403Z,12.73
2018-12-14T16:10:38.913Z,12.93
2018-12-14T16:13:05.521Z,14.10
2018-12-14T16:15:32.054Z,13.47
2018-12-14T16:17:58.784Z,13.13
2018-12-14T16:20:25.459Z,13.80
2018-12-14T16:22:52.373Z,12.60
2018-12-14T16:25:18.898Z,11.57
2018-12-14T16:27:45.519Z,12.80
2018-12-14T16:30:12.107Z,12.90
2018-12-14T16:32:38.677Z,13.10
2018-12-14T16:35:05.614Z,12.20
2018-12-14T16:37:32.171Z,12.00
2018-12-14T16:39:58.783Z,11.70
2018-12-14T16:42:25.391Z,13.37
2018-12-14T16:44:51.898Z,12.10
2018-12-14T16:47:18.436Z,11.10
2018-12-14T16:49:45.015Z,13.10
2018-12-14T16:52:11.732Z,12.67
2018-12-14T16:54:38.314Z,12.07
2018-12-14T16:57:05.946Z,12.23
2018-12-14T16:59:32.926Z,12.27
2018-12-14T17:02:01.281Z,12.43
2018-12-14T17:04:27.910Z,12.40
2018-12-14T17:06:54.542Z,12.03
2018-12-14T17:09:21.217Z,11.83
2018-12-14T17:11:47.885Z,12.20
2018-12-14T17:14:14.375Z,11.23
2018-12-14T17:16:40.987Z,13.27
2018-12-14T17:19:07.589Z,12.33
2018-12-14T17:21:35.024Z,11.40
2018-12-14T17:24:02.403Z,11.83
2018-12-14T17:26:29.125Z,11.30
2018-12-14T17:28:55.731Z,12.07
2018-12-14T17:31:22.348Z,12.90
2018-12-14T17:33:48.821Z,12.03
2018-12-14T17:36:15.321Z,13.33
2018-12-14T17:38:42.034Z,11.50
2018-12-14T17:41:08.551Z,12.80
2018-12-14T17:43:35.019Z,12.23
2018-12-14T17:46:01.760Z,12.20
2018-12-14T17:48:28.507Z,12.97
2018-12-14T17:50:55.065Z,11.93
2018-12-14T17:53:21.629Z,11.70
2018-12-14T17:55:48.330Z,12.00
2018-12-14T17:58:14.951Z,11.50
2018-12-14T18:00:41.787Z,13.10
2018-12-14T18:03:09.327Z,12.57
2018-12-14T18:05:35.940Z,12.10
2018-12-14T18:08:02.635Z,12.43
2018-12-14T18:10:29.126Z,13.73
2018-12-14T18:12:55.734Z,13.58
2018-12-14T18:15:22.402Z,12.97
2018-12-14T18:17:49.622Z,13.20
2018-12-14T18:20:16.196Z,13.57
2018-12-14T18:22:43.185Z,12.20
2018-12-14T18:25:10.223Z,12.37
2018-12-14T18:27:36.924Z,14.63
2018-12-14T18:30:05.193Z,12.50
2018-12-14T18:32:31.756Z,12.40
2018-12-14T18:34:58.870Z,13.53
2018-12-14T18:37:25.503Z,13.63
2018-12-14T18:39:51.985Z,12.90
2018-12-14T18:42:18.450Z,12.83
2018-12-14T18:44:45.214Z,13.40
2018-12-14T18:47:11.718Z,13.60
2018-12-14T18:49:38.409Z,13.17
2018-12-14T18:52:04.983Z,13.10
2018-12-14T18:54:33.223Z,13.63
2018-12-14T18:56:59.806Z,12.87
2018-12-14T18:59:28.038Z,12.90
2018-12-14T19:01:54.599Z,12.50
2018-12-14T19:04:21.215Z,12.97
2018-12-14T19:06:47.828Z,13.87
2018-12-14T19:09:14.438Z,13.73
2018-12-14T19:11:41.117Z,12.90
2018-12-14T19:14:08.621Z,13.60
2018-12-14T19:16:35.306Z,12.47
2018-12-14T19:19:02.093Z,13.00
2018-12-14T19:21:28.706Z,13.10
2018-12-14T19:23:55.238Z,13.20
2018-12-14T19:26:21.711Z,12.80
2018-12-14T19:28:48.282Z,11.67
2018-12-14T19:31:14.782Z,13.37
2018-12-14T19:33:41.462Z,13.57
2018-12-14T19:36:08.085Z,12.30
2018-12-14T19:38:35.550Z,14.50
2018-12-14T19:41:03.194Z,12.87
2018-12-14T19:43:29.694Z,12.77
2018-12-14T19:45:56.319Z,12.30
2018-12-14T19:48:22.797Z,13.77
2018-12-14T19:50:49.697Z,13.90
2018-12-14T19:53:16.304Z,14.10
2018-12-14T19:55:42.973Z,14.20
2018-12-14T19:58:09.444Z,13.73
2018-12-14T20:00:36.406Z,14.20
2018-12-14T20:03:03.306Z,14.10
2018-12-14T20:05:29.931Z,14.67
2018-12-14T20:07:58.273Z,14.00
2018-12-14T20:10:25.899Z,13.17
2018-12-14T20:12:52.546Z,14.20
2018-12-14T20:15:19.366Z,13.67
2018-12-14T20:17:45.967Z,13.70
2018-12-14T20:20:12.626Z,12.40
2018-12-14T20:22:39.250Z,13.00
2018-12-14T20:25:06.853Z,13.00
2018-12-14T20:27:33.511Z,13.00
2018-12-14T20:30:00.099Z,12.83
2018-12-14T20:32:27.044Z,13.80
2018-12-14T20:34:54.619Z,14.27
2018-12-14T20:37:21.344Z,13.30
2018-12-14T20:39:48.812Z,13.10
2018-12-14T20:42:15.437Z,13.27
2018-12-14T20:44:41.924Z,12.53
2018-12-14T20:47:08.502Z,12.97
2018-12-14T20:49:35.865Z,11.87
2018-12-14T20:52:03.132Z,13.40
2018-12-14T20:54:29.769Z,12.90
2018-12-14T20:56:56.434Z,13.40
2018-12-14T20:59:23.149Z,12.27
2018-12-14T21:01:49.762Z,14.47
2018-12-14T21:04:16.403Z,12.90
2018-12-14T21:06:43.315Z,13.47
2018-12-14T21:09:09.925Z,14.67
2018-12-14T21:11:36.592Z,12.93
2018-12-14T21:14:03.238Z,14.53
2018-12-14T21:16:29.848Z,14.00
2018-12-14T21:18:56.660Z,13.47
2018-12-14T21:21:24.328Z,14.23
2018-12-14T21:23:53.550Z,13.60
2018-12-14T21:26:20.107Z,15.03
2018-12-14T21:28:46.627Z,13.60
2018-12-14T21:31:13.102Z,13.47
2018-12-14T21:33:39.819Z,12.87
2018-12-14T21:36:07.324Z,14.73
2018-12-14T21:38:33.935Z,15.07
2018-12-14T21:41:02.054Z,14.17
2018-12-14T21:43:28.724Z,13.00
2018-12-14T21:45:55.340Z,14.10
2018-12-14T21:48:22.089Z,12.93
2018-12-14T21:50:48.584Z,13.10
2018-12-14T21:53:15.198Z,13.13
2018-12-14T21:55:41.823Z,12.67
2018-12-14T21:58:08.992Z,13.83
2018-12-14T22:00:35.680Z,11.57
2018-12-14T22:03:03.852Z,12.17
2018-12-14T22:05:30.460Z,12.40
2018-12-14T22:07:56.916Z,12.43
2018-12-14T22:10:23.667Z,13.00
2018-12-14T22:12:50.314Z,12.00
2018-12-14T22:15:16.836Z,13.07
2018-12-14T22:17:43.475Z,13.50
2018-12-14T22:20:09.986Z,12.03
2018-12-14T22:22:36.447Z,12.80
2018-12-14T22:25:03.730Z,13.80
2018-12-14T22:27:30.253Z,12.90
2018-12-14T22:29:56.875Z,13.03
2018-12-14T22:32:23.402Z,13.10
2018-12-14T22:34:50.168Z,13.50
2018-12-14T22:37:16.697Z,12.90
2018-12-14T22:39:43.502Z,13.00
2018-12-14T22:42:10.211Z,12.37
2018-12-14T22:44:36.713Z,11.60
2018-12-14T22:47:03.251Z,12.73
2018-12-14T22:49:29.853Z,13.90
2018-12-14T22:51:56.514Z,12.40
2018-12-14T22:54:23.043Z,13.87
2018-12-14T22:56:49.678Z,12.77
2018-12-14T22:59:16.295Z,12.90
2018-12-14T23:01:42.922Z,13.50
2018-12-14T23:04:09.486Z,12.77
2018-12-14T23:06:36.061Z,11.70
2018-12-14T23:09:04.027Z,12.03
2018-12-14T23:11:30.502Z,13.53
2018-12-14T23:13:57.032Z,13.10
2018-12-14T23:16:23.522Z,12.57
2018-12-14T23:18:50.105Z,13.23
2018-12-14T23:21:16.805Z,12.67
2018-12-14T23:23:43.312Z,14.00
2018-12-14T23:26:09.793Z,12.73
2018-12-14T23:28:36.282Z,14.30
2018-12-14T23:31:02.893Z,13.37
2018-12-14T23:33:29.354Z,14.17
2018-12-14T23:35:56.069Z,14.00
2018-12-14T23:38:22.626Z,13.77
2018-12-14T23:40:49.147Z,14.43
2018-12-14T23:43:15.614Z,15.33
2018-12-14T23:45:42.122Z,15.63
2018-12-14T23:48:08.689Z,14.77
2018-12-14T23:50:35.188Z,15.67
2018-12-14T23:53:01.759Z,17.67
2018-12-14T23:55:28.264Z,16.40
2018-12-14T23:57:54.906Z,16.47
